sensor_id;sensor_type;location;lat;lon;timestamp;temperature;humidity
48162;DHT22;33950;48.154;16.316;2024-01-25T00:01:08;10.40;97.00
48162;DHT22;33950;48.154;16.316;2024-01-25T00:03:33;10.40;96.90
48162;DHT22;33950;48.154;16.316;2024-01-25T00:05:59;10.40;97.00
48162;DHT22;33950;48.154;16.316;2024-01-25T00:08:25;10.40;97.00
48162;DHT22;33950;48.154;16.316;2024-01-25T00:10:51;10.30;97.00
48162;DHT22;33950;48.154;16.316;2024-01-25T00:13:16;10.30;97.00
48162;DHT22;33950;48.154;16.316;2024-01-25T00:15:43;10.40;97.10
48162;DHT22;33950;48.154;16.316;2024-01-25T00:18:09;10.30;97.00
48162;DHT22;33950;48.154;16.316;2024-01-25T00:20:34;10.30;97.10
48162;DHT22;33950;48.154;16.316;2024-01-25T00:23:00;10.30;97.10
48162;DHT22;33950;48.154;16.316;2024-01-25T00:25:26;10.30;97.10
48162;DHT22;33950;48.154;16.316;2024-01-25T00:27:51;10.20;97.20
48162;DHT22;33950;48.154;16.316;2024-01-25T00:30:17;10.30;97.00
48162;DHT22;33950;48.154;16.316;2024-01-25T00:32:44;10.30;97.00
48162;DHT22;33950;48.154;16.316;2024-01-25T00:35:10;10.20;97.00
48162;DHT22;33950;48.154;16.316;2024-01-25T00:37:38;10.30;97.20
48162;DHT22;33950;48.154;16.316;2024-01-25T00:40:05;10.30;97.00
48162;DHT22;33950;48.154;16.316;2024-01-25T00:42:30;10.30;97.10
48162;DHT22;33950;48.154;16.316;2024-01-25T00:44:57;10.20;97.10
48162;DHT22;33950;48.154;16.316;2024-01-25T00:47:23;10.20;97.10
48162;DHT22;33950;48.154;16.316;2024-01-25T00:49:50;10.20;97.00
48162;DHT22;33950;48.154;16.316;2024-01-25T00:52:16;10.20;96.90
48162;DHT22;33950;48.154;16.316;2024-01-25T00:54:42;10.20;97.00
48162;DHT22;33950;48.154;16.316;2024-01-25T00:57:08;10.20;97.00
48162;DHT22;33950;48.154;16.316;2024-01-25T00:59:34;10.20;96.80
48162;DHT22;33950;48.154;16.316;2024-01-25T01:02:00;10.20;96.80
48162;DHT22;33950;48.154;16.316;2024-01-25T01:04:27;10.20;96.70
48162;DHT22;33950;48.154;16.316;2024-01-25T01:06:54;10.10;96.70
48162;DHT22;33950;48.154;16.316;2024-01-25T01:09:20;10.10;96.70
48162;DHT22;33950;48.154;16.316;2024-01-25T01:11:46;10.10;96.60
48162;DHT22;33950;48.154;16.316;2024-01-25T01:14:12;10.10;96.70
48162;DHT22;33950;48.154;16.316;2024-01-25T01:16:38;10.10;96.90
48162;DHT22;33950;48.154;16.316;2024-01-25T01:19:03;10.10;96.70
48162;DHT22;33950;48.154;16.316;2024-01-25T01:21:33;10.00;96.60
48162;DHT22;33950;48.154;16.316;2024-01-25T01:24:00;10.00;96.80
48162;DHT22;33950;48.154;16.316;2024-01-25T01:26:25;10.00;96.70
48162;DHT22;33950;48.154;16.316;2024-01-25T01:28:51;10.00;96.80
48162;DHT22;33950;48.154;16.316;2024-01-25T01:31:16;10.00;96.80
48162;DHT22;33950;48.154;16.316;2024-01-25T01:33:42;10.00;96.80
48162;DHT22;33950;48.154;16.316;2024-01-25T01:36:08;10.00;96.80
48162;DHT22;33950;48.154;16.316;2024-01-25T01:38:33;10.00;96.80
48162;DHT22;33950;48.154;16.316;2024-01-25T01:41:00;10.00;96.80
48162;DHT22;33950;48.154;16.316;2024-01-25T01:43:26;10.00;96.70
48162;DHT22;33950;48.154;16.316;2024-01-25T01:45:51;9.90;96.70
48162;DHT22;33950;48.154;16.316;2024-01-25T01:48:18;9.90;96.80
48162;DHT22;33950;48.154;16.316;2024-01-25T01:50:43;9.80;97.10
48162;DHT22;33950;48.154;16.316;2024-01-25T01:53:09;9.90;96.80
48162;DHT22;33950;48.154;16.316;2024-01-25T01:55:35;9.90;96.80
48162;DHT22;33950;48.154;16.316;2024-01-25T01:58:03;9.90;96.80
48162;DHT22;33950;48.154;16.316;2024-01-25T02:00:30;9.90;96.80
48162;DHT22;33950;48.154;16.316;2024-01-25T02:02:55;9.80;96.80
48162;DHT22;33950;48.154;16.316;2024-01-25T02:05:23;9.80;96.90
48162;DHT22;33950;48.154;16.316;2024-01-25T02:07:48;9.80;96.80
48162;DHT22;33950;48.154;16.316;2024-01-25T02:10:14;9.80;96.80
48162;DHT22;33950;48.154;16.316;2024-01-25T02:12:40;9.80;96.90
48162;DHT22;33950;48.154;16.316;2024-01-25T02:15:07;9.80;96.90
48162;DHT22;33950;48.154;16.316;2024-01-25T02:17:33;9.70;96.90
48162;DHT22;33950;48.154;16.316;2024-01-25T02:19:59;9.80;97.00
48162;DHT22;33950;48.154;16.316;2024-01-25T02:22:27;9.70;96.80
48162;DHT22;33950;48.154;16.316;2024-01-25T02:24:53;9.70;96.80
48162;DHT22;33950;48.154;16.316;2024-01-25T02:27:18;9.70;96.90
48162;DHT22;33950;48.154;16.316;2024-01-25T02:29:44;9.70;96.90
48162;DHT22;33950;48.154;16.316;2024-01-25T02:32:09;9.70;96.90
48162;DHT22;33950;48.154;16.316;2024-01-25T02:34:35;9.70;96.90
48162;DHT22;33950;48.154;16.316;2024-01-25T02:37:00;9.70;97.00
48162;DHT22;33950;48.154;16.316;2024-01-25T02:39:27;9.70;97.10
48162;DHT22;33950;48.154;16.316;2024-01-25T02:41:53;9.70;97.10
48162;DHT22;33950;48.154;16.316;2024-01-25T02:44:19;9.70;97.00
48162;DHT22;33950;48.154;16.316;2024-01-25T02:46:44;9.60;97.00
48162;DHT22;33950;48.154;16.316;2024-01-25T02:49:11;9.70;96.70
48162;DHT22;33950;48.154;16.316;2024-01-25T02:51:37;9.60;96.70
48162;DHT22;33950;48.154;16.316;2024-01-25T02:54:02;9.70;96.70
48162;DHT22;33950;48.154;16.316;2024-01-25T02:56:29;9.60;96.80
48162;DHT22;33950;48.154;16.316;2024-01-25T02:59:00;9.60;96.80
48162;DHT22;33950;48.154;16.316;2024-01-25T03:01:25;9.60;96.80
48162;DHT22;33950;48.154;16.316;2024-01-25T03:03:51;9.60;96.90
48162;DHT22;33950;48.154;16.316;2024-01-25T03:06:16;9.60;96.80
48162;DHT22;33950;48.154;16.316;2024-01-25T03:08:42;9.60;96.80
48162;DHT22;33950;48.154;16.316;2024-01-25T03:11:07;9.60;96.50
48162;DHT22;33950;48.154;16.316;2024-01-25T03:13:34;9.60;96.50
48162;DHT22;33950;48.154;16.316;2024-01-25T03:16:00;9.60;96.20
48162;DHT22;33950;48.154;16.316;2024-01-25T03:18:26;9.60;96.40
48162;DHT22;33950;48.154;16.316;2024-01-25T03:20:52;9.50;96.70
48162;DHT22;33950;48.154;16.316;2024-01-25T03:23:18;9.60;96.50
48162;DHT22;33950;48.154;16.316;2024-01-25T03:25:43;9.60;96.90
48162;DHT22;33950;48.154;16.316;2024-01-25T03:28:09;9.50;96.90
48162;DHT22;33950;48.154;16.316;2024-01-25T03:30:38;9.50;97.20
48162;DHT22;33950;48.154;16.316;2024-01-25T03:33:03;9.50;97.40
48162;DHT22;33950;48.154;16.316;2024-01-25T03:35:29;9.40;97.50
48162;DHT22;33950;48.154;16.316;2024-01-25T03:37:54;9.40;97.60
48162;DHT22;33950;48.154;16.316;2024-01-25T03:40:20;9.40;97.90
48162;DHT22;33950;48.154;16.316;2024-01-25T03:42:46;9.40;98.00
48162;DHT22;33950;48.154;16.316;2024-01-25T03:45:11;9.40;98.20
48162;DHT22;33950;48.154;16.316;2024-01-25T03:47:38;9.40;97.90
48162;DHT22;33950;48.154;16.316;2024-01-25T03:50:04;9.40;98.10
48162;DHT22;33950;48.154;16.316;2024-01-25T03:52:30;9.40;98.20
48162;DHT22;33950;48.154;16.316;2024-01-25T03:54:55;9.40;98.10
48162;DHT22;33950;48.154;16.316;2024-01-25T03:57:21;9.40;98.30
48162;DHT22;33950;48.154;16.316;2024-01-25T03:59:46;9.30;98.30
48162;DHT22;33950;48.154;16.316;2024-01-25T04:02:12;9.30;98.20
48162;DHT22;33950;48.154;16.316;2024-01-25T04:04:39;9.30;98.30
48162;DHT22;33950;48.154;16.316;2024-01-25T04:07:05;9.30;98.30
48162;DHT22;33950;48.154;16.316;2024-01-25T04:09:30;9.30;98.30
48162;DHT22;33950;48.154;16.316;2024-01-25T04:11:56;9.30;98.20
48162;DHT22;33950;48.154;16.316;2024-01-25T04:14:22;9.30;98.20
48162;DHT22;33950;48.154;16.316;2024-01-25T04:16:47;9.20;98.30
48162;DHT22;33950;48.154;16.316;2024-01-25T04:19:13;9.20;98.10
48162;DHT22;33950;48.154;16.316;2024-01-25T04:21:40;9.20;98.20
48162;DHT22;33950;48.154;16.316;2024-01-25T04:24:06;9.20;98.20
48162;DHT22;33950;48.154;16.316;2024-01-25T04:26:31;9.30;98.20
48162;DHT22;33950;48.154;16.316;2024-01-25T04:28:57;9.30;98.10
48162;DHT22;33950;48.154;16.316;2024-01-25T04:31:23;9.20;98.00
48162;DHT22;33950;48.154;16.316;2024-01-25T04:33:48;9.20;98.20
48162;DHT22;33950;48.154;16.316;2024-01-25T04:36:14;9.20;98.00
48162;DHT22;33950;48.154;16.316;2024-01-25T04:38:41;9.20;98.00
48162;DHT22;33950;48.154;16.316;2024-01-25T04:41:07;9.20;98.20
48162;DHT22;33950;48.154;16.316;2024-01-25T04:43:33;9.20;98.20
48162;DHT22;33950;48.154;16.316;2024-01-25T04:45:59;9.20;98.20
48162;DHT22;33950;48.154;16.316;2024-01-25T04:48:25;9.20;98.30
48162;DHT22;33950;48.154;16.316;2024-01-25T04:50:50;9.20;98.30
48162;DHT22;33950;48.154;16.316;2024-01-25T04:53:16;9.20;98.30
48162;DHT22;33950;48.154;16.316;2024-01-25T04:55:43;9.20;98.00
48162;DHT22;33950;48.154;16.316;2024-01-25T04:58:09;9.10;98.10
48162;DHT22;33950;48.154;16.316;2024-01-25T05:00:34;9.20;98.20
48162;DHT22;33950;48.154;16.316;2024-01-25T05:03:02;9.20;98.30
48162;DHT22;33950;48.154;16.316;2024-01-25T05:05:27;9.20;98.30
48162;DHT22;33950;48.154;16.316;2024-01-25T05:07:53;9.20;98.60
48162;DHT22;33950;48.154;16.316;2024-01-25T05:10:19;9.20;98.20
48162;DHT22;33950;48.154;16.316;2024-01-25T05:12:46;9.20;98.00
48162;DHT22;33950;48.154;16.316;2024-01-25T05:15:11;9.20;98.20
48162;DHT22;33950;48.154;16.316;2024-01-25T05:17:37;9.20;98.20
48162;DHT22;33950;48.154;16.316;2024-01-25T05:20:03;9.20;98.20
48162;DHT22;33950;48.154;16.316;2024-01-25T05:22:29;9.10;98.30
48162;DHT22;33950;48.154;16.316;2024-01-25T05:24:54;9.20;98.40
48162;DHT22;33950;48.154;16.316;2024-01-25T05:27:20;9.20;98.30
48162;DHT22;33950;48.154;16.316;2024-01-25T05:29:47;9.20;98.20
48162;DHT22;33950;48.154;16.316;2024-01-25T05:32:12;9.20;98.20
48162;DHT22;33950;48.154;16.316;2024-01-25T05:34:38;9.20;98.20
48162;DHT22;33950;48.154;16.316;2024-01-25T05:37:04;9.20;98.30
48162;DHT22;33950;48.154;16.316;2024-01-25T05:39:30;9.20;98.30
48162;DHT22;33950;48.154;16.316;2024-01-25T05:41:55;9.10;98.20
48162;DHT22;33950;48.154;16.316;2024-01-25T05:44:21;9.20;98.30
48162;DHT22;33950;48.154;16.316;2024-01-25T05:46:48;9.20;98.30
48162;DHT22;33950;48.154;16.316;2024-01-25T05:49:13;9.10;98.20
48162;DHT22;33950;48.154;16.316;2024-01-25T05:51:39;9.10;98.30
48162;DHT22;33950;48.154;16.316;2024-01-25T05:54:05;9.10;98.30
48162;DHT22;33950;48.154;16.316;2024-01-25T05:56:31;9.10;98.30
48162;DHT22;33950;48.154;16.316;2024-01-25T05:58:57;9.00;98.20
48162;DHT22;33950;48.154;16.316;2024-01-25T06:01:22;9.00;98.30
48162;DHT22;33950;48.154;16.316;2024-01-25T06:03:49;9.00;98.30
48162;DHT22;33950;48.154;16.316;2024-01-25T06:06:15;9.00;98.40
48162;DHT22;33950;48.154;16.316;2024-01-25T06:08:40;9.00;98.50
48162;DHT22;33950;48.154;16.316;2024-01-25T06:11:06;9.00;98.50
48162;DHT22;33950;48.154;16.316;2024-01-25T06:13:31;8.90;98.50
48162;DHT22;33950;48.154;16.316;2024-01-25T06:15:57;8.90;98.60
48162;DHT22;33950;48.154;16.316;2024-01-25T06:18:23;8.90;98.60
48162;DHT22;33950;48.154;16.316;2024-01-25T06:20:50;8.90;98.60
48162;DHT22;33950;48.154;16.316;2024-01-25T06:23:16;8.90;98.60
48162;DHT22;33950;48.154;16.316;2024-01-25T06:25:42;8.90;98.50
48162;DHT22;33950;48.154;16.316;2024-01-25T06:28:07;8.90;98.50
48162;DHT22;33950;48.154;16.316;2024-01-25T06:30:33;8.90;98.50
48162;DHT22;33950;48.154;16.316;2024-01-25T06:32:59;8.90;98.50
48162;DHT22;33950;48.154;16.316;2024-01-25T06:35:24;8.90;98.40
48162;DHT22;33950;48.154;16.316;2024-01-25T06:37:51;8.80;98.50
48162;DHT22;33950;48.154;16.316;2024-01-25T06:40:17;8.90;98.40
48162;DHT22;33950;48.154;16.316;2024-01-25T06:42:43;8.80;98.40
48162;DHT22;33950;48.154;16.316;2024-01-25T06:45:10;8.80;98.30
48162;DHT22;33950;48.154;16.316;2024-01-25T06:47:35;8.80;98.40
48162;DHT22;33950;48.154;16.316;2024-01-25T06:50:01;8.90;98.40
48162;DHT22;33950;48.154;16.316;2024-01-25T06:52:27;8.90;98.40
48162;DHT22;33950;48.154;16.316;2024-01-25T06:54:54;8.90;98.50
48162;DHT22;33950;48.154;16.316;2024-01-25T06:57:19;8.90;98.30
48162;DHT22;33950;48.154;16.316;2024-01-25T06:59:45;8.90;98.30
48162;DHT22;33950;48.154;16.316;2024-01-25T07:02:11;8.90;98.30
48162;DHT22;33950;48.154;16.316;2024-01-25T07:04:37;8.90;98.30
48162;DHT22;33950;48.154;16.316;2024-01-25T07:07:03;9.00;98.40
48162;DHT22;33950;48.154;16.316;2024-01-25T07:09:29;8.90;98.40
48162;DHT22;33950;48.154;16.316;2024-01-25T07:11:56;9.00;98.40
48162;DHT22;33950;48.154;16.316;2024-01-25T07:14:21;9.00;98.40
48162;DHT22;33950;48.154;16.316;2024-01-25T07:16:47;8.90;98.40
48162;DHT22;33950;48.154;16.316;2024-01-25T07:19:13;8.90;98.50
48162;DHT22;33950;48.154;16.316;2024-01-25T07:21:39;8.90;98.50
48162;DHT22;33950;48.154;16.316;2024-01-25T07:24:05;8.90;98.40
48162;DHT22;33950;48.154;16.316;2024-01-25T07:26:31;8.90;98.50
48162;DHT22;33950;48.154;16.316;2024-01-25T07:28:58;8.90;98.60
48162;DHT22;33950;48.154;16.316;2024-01-25T07:31:24;8.90;98.70
48162;DHT22;33950;48.154;16.316;2024-01-25T07:33:51;8.90;98.70
48162;DHT22;33950;48.154;16.316;2024-01-25T07:36:16;8.90;98.50
48162;DHT22;33950;48.154;16.316;2024-01-25T07:38:42;8.90;98.60
48162;DHT22;33950;48.154;16.316;2024-01-25T07:41:08;8.90;98.70
48162;DHT22;33950;48.154;16.316;2024-01-25T07:43:33;8.80;99.00
48162;DHT22;33950;48.154;16.316;2024-01-25T07:46:00;8.90;98.80
48162;DHT22;33950;48.154;16.316;2024-01-25T07:48:26;8.90;99.00
48162;DHT22;33950;48.154;16.316;2024-01-25T07:50:51;8.80;99.10
48162;DHT22;33950;48.154;16.316;2024-01-25T07:53:17;8.80;98.90
48162;DHT22;33950;48.154;16.316;2024-01-25T07:55:43;8.80;98.70
48162;DHT22;33950;48.154;16.316;2024-01-25T07:58:08;8.90;98.70
48162;DHT22;33950;48.154;16.316;2024-01-25T08:00:34;9.00;98.70
48162;DHT22;33950;48.154;16.316;2024-01-25T08:03:01;8.90;98.10
48162;DHT22;33950;48.154;16.316;2024-01-25T08:05:26;8.90;98.30
48162;DHT22;33950;48.154;16.316;2024-01-25T08:07:52;8.90;98.10
48162;DHT22;33950;48.154;16.316;2024-01-25T08:10:18;8.90;97.80
48162;DHT22;33950;48.154;16.316;2024-01-25T08:12:43;8.90;97.60
48162;DHT22;33950;48.154;16.316;2024-01-25T08:15:11;8.90;97.50
48162;DHT22;33950;48.154;16.316;2024-01-25T08:17:37;8.90;97.20
48162;DHT22;33950;48.154;16.316;2024-01-25T08:20:05;8.90;96.90
48162;DHT22;33950;48.154;16.316;2024-01-25T08:22:31;8.90;96.90
48162;DHT22;33950;48.154;16.316;2024-01-25T08:24:57;8.90;96.80
48162;DHT22;33950;48.154;16.316;2024-01-25T08:27:22;8.90;96.40
48162;DHT22;33950;48.154;16.316;2024-01-25T08:29:48;9.00;96.00
48162;DHT22;33950;48.154;16.316;2024-01-25T08:32:14;9.00;96.20
48162;DHT22;33950;48.154;16.316;2024-01-25T08:34:39;9.00;96.00
48162;DHT22;33950;48.154;16.316;2024-01-25T08:37:06;9.00;95.90
48162;DHT22;33950;48.154;16.316;2024-01-25T08:39:32;9.00;96.30
48162;DHT22;33950;48.154;16.316;2024-01-25T08:41:57;9.00;96.60
48162;DHT22;33950;48.154;16.316;2024-01-25T08:44:27;9.00;96.60
48162;DHT22;33950;48.154;16.316;2024-01-25T08:46:52;9.00;97.10
48162;DHT22;33950;48.154;16.316;2024-01-25T08:49:18;9.00;97.40
48162;DHT22;33950;48.154;16.316;2024-01-25T08:51:43;9.00;97.50
48162;DHT22;33950;48.154;16.316;2024-01-25T08:54:10;9.00;97.50
48162;DHT22;33950;48.154;16.316;2024-01-25T08:56:36;9.00;97.30
48162;DHT22;33950;48.154;16.316;2024-01-25T08:59:01;9.00;97.70
48162;DHT22;33950;48.154;16.316;2024-01-25T09:01:27;8.90;98.00
48162;DHT22;33950;48.154;16.316;2024-01-25T09:03:53;9.00;98.20
48162;DHT22;33950;48.154;16.316;2024-01-25T09:06:18;9.00;97.70
48162;DHT22;33950;48.154;16.316;2024-01-25T09:08:44;8.90;97.60
48162;DHT22;33950;48.154;16.316;2024-01-25T09:11:11;8.90;97.80
48162;DHT22;33950;48.154;16.316;2024-01-25T09:13:37;8.90;97.90
48162;DHT22;33950;48.154;16.316;2024-01-25T09:16:02;8.90;97.40
48162;DHT22;33950;48.154;16.316;2024-01-25T09:18:28;8.90;97.10
48162;DHT22;33950;48.154;16.316;2024-01-25T09:20:54;9.00;97.20
48162;DHT22;33950;48.154;16.316;2024-01-25T09:23:19;9.00;97.20
48162;DHT22;33950;48.154;16.316;2024-01-25T09:25:45;9.10;97.20
48162;DHT22;33950;48.154;16.316;2024-01-25T09:28:12;9.10;96.60
48162;DHT22;33950;48.154;16.316;2024-01-25T09:30:38;9.20;96.70
48162;DHT22;33950;48.154;16.316;2024-01-25T09:33:04;9.20;96.40
48162;DHT22;33950;48.154;16.316;2024-01-25T09:35:30;9.20;96.20
48162;DHT22;33950;48.154;16.316;2024-01-25T09:37:56;9.20;96.20
48162;DHT22;33950;48.154;16.316;2024-01-25T09:40:21;9.20;96.10
48162;DHT22;33950;48.154;16.316;2024-01-25T09:42:47;9.30;96.30
48162;DHT22;33950;48.154;16.316;2024-01-25T09:45:17;9.40;95.70
48162;DHT22;33950;48.154;16.316;2024-01-25T09:47:43;9.30;96.10
48162;DHT22;33950;48.154;16.316;2024-01-25T09:50:09;9.30;96.40
48162;DHT22;33950;48.154;16.316;2024-01-25T09:52:35;9.30;96.80
48162;DHT22;33950;48.154;16.316;2024-01-25T09:55:01;9.20;96.90
48162;DHT22;33950;48.154;16.316;2024-01-25T09:57:27;9.10;96.90
48162;DHT22;33950;48.154;16.316;2024-01-25T09:59:53;9.20;96.70
48162;DHT22;33950;48.154;16.316;2024-01-25T10:02:22;9.30;96.40
48162;DHT22;33950;48.154;16.316;2024-01-25T10:04:48;9.40;96.30
48162;DHT22;33950;48.154;16.316;2024-01-25T10:07:14;9.50;96.50
48162;DHT22;33950;48.154;16.316;2024-01-25T10:09:40;9.50;96.50
48162;DHT22;33950;48.154;16.316;2024-01-25T10:12:06;9.50;96.40
48162;DHT22;33950;48.154;16.316;2024-01-25T10:14:31;9.60;96.30
48162;DHT22;33950;48.154;16.316;2024-01-25T10:16:57;9.60;96.70
48162;DHT22;33950;48.154;16.316;2024-01-25T10:19:24;9.70;96.80
48162;DHT22;33950;48.154;16.316;2024-01-25T10:21:50;9.70;96.50
48162;DHT22;33950;48.154;16.316;2024-01-25T10:24:15;9.70;96.70
48162;DHT22;33950;48.154;16.316;2024-01-25T10:26:41;9.60;96.50
48162;DHT22;33950;48.154;16.316;2024-01-25T10:29:08;9.60;96.90
48162;DHT22;33950;48.154;16.316;2024-01-25T10:31:34;9.60;96.80
48162;DHT22;33950;48.154;16.316;2024-01-25T10:34:01;9.60;96.70
48162;DHT22;33950;48.154;16.316;2024-01-25T10:36:28;9.60;96.50
48162;DHT22;33950;48.154;16.316;2024-01-25T10:38:54;9.50;96.70
48162;DHT22;33950;48.154;16.316;2024-01-25T10:41:20;9.60;96.50
48162;DHT22;33950;48.154;16.316;2024-01-25T10:43:46;9.50;96.10
48162;DHT22;33950;48.154;16.316;2024-01-25T10:46:11;9.40;96.50
48162;DHT22;33950;48.154;16.316;2024-01-25T10:48:37;9.50;96.50
48162;DHT22;33950;48.154;16.316;2024-01-25T10:51:03;9.50;96.60
48162;DHT22;33950;48.154;16.316;2024-01-25T10:53:30;9.60;96.00
48162;DHT22;33950;48.154;16.316;2024-01-25T10:55:56;9.60;96.20
48162;DHT22;33950;48.154;16.316;2024-01-25T10:58:22;9.60;95.80
48162;DHT22;33950;48.154;16.316;2024-01-25T11:00:51;9.60;95.80
48162;DHT22;33950;48.154;16.316;2024-01-25T11:03:18;9.90;95.50
48162;DHT22;33950;48.154;16.316;2024-01-25T11:05:43;9.80;95.20
48162;DHT22;33950;48.154;16.316;2024-01-25T11:08:16;9.70;94.90
48162;DHT22;33950;48.154;16.316;2024-01-25T11:10:46;9.70;95.40
48162;DHT22;33950;48.154;16.316;2024-01-25T11:13:13;9.90;95.00
48162;DHT22;33950;48.154;16.316;2024-01-25T11:15:39;9.90;94.70
48162;DHT22;33950;48.154;16.316;2024-01-25T11:18:07;9.80;94.60
48162;DHT22;33950;48.154;16.316;2024-01-25T11:20:34;9.80;94.80
48162;DHT22;33950;48.154;16.316;2024-01-25T11:23:01;9.70;94.80
48162;DHT22;33950;48.154;16.316;2024-01-25T11:25:27;9.60;94.80
48162;DHT22;33950;48.154;16.316;2024-01-25T11:27:54;9.60;94.90
48162;DHT22;33950;48.154;16.316;2024-01-25T11:30:20;9.80;94.70
48162;DHT22;33950;48.154;16.316;2024-01-25T11:32:46;9.80;94.20
48162;DHT22;33950;48.154;16.316;2024-01-25T11:35:13;9.70;93.90
48162;DHT22;33950;48.154;16.316;2024-01-25T11:37:43;9.60;94.30
48162;DHT22;33950;48.154;16.316;2024-01-25T11:40:10;9.80;94.10
48162;DHT22;33950;48.154;16.316;2024-01-25T11:42:35;10.00;94.10
48162;DHT22;33950;48.154;16.316;2024-01-25T11:45:03;10.00;93.70
48162;DHT22;33950;48.154;16.316;2024-01-25T11:47:30;10.00;93.90
48162;DHT22;33950;48.154;16.316;2024-01-25T11:49:56;10.10;93.70
48162;DHT22;33950;48.154;16.316;2024-01-25T11:52:21;10.30;93.50
48162;DHT22;33950;48.154;16.316;2024-01-25T11:54:47;10.40;93.20
48162;DHT22;33950;48.154;16.316;2024-01-25T11:57:12;10.50;93.00
48162;DHT22;33950;48.154;16.316;2024-01-25T11:59:38;10.50;93.00
48162;DHT22;33950;48.154;16.316;2024-01-25T12:02:05;10.60;92.80
48162;DHT22;33950;48.154;16.316;2024-01-25T12:04:31;10.50;92.80
48162;DHT22;33950;48.154;16.316;2024-01-25T12:06:57;10.80;92.70
48162;DHT22;33950;48.154;16.316;2024-01-25T12:09:22;11.10;92.20
48162;DHT22;33950;48.154;16.316;2024-01-25T12:11:49;11.10;92.20
48162;DHT22;33950;48.154;16.316;2024-01-25T12:14:15;11.00;92.00
48162;DHT22;33950;48.154;16.316;2024-01-25T12:16:41;11.10;92.00
48162;DHT22;33950;48.154;16.316;2024-01-25T12:19:08;11.10;91.70
48162;DHT22;33950;48.154;16.316;2024-01-25T12:21:34;11.00;92.00
48162;DHT22;33950;48.154;16.316;2024-01-25T12:24:00;11.10;91.90
48162;DHT22;33950;48.154;16.316;2024-01-25T12:26:25;11.20;91.60
48162;DHT22;33950;48.154;16.316;2024-01-25T12:28:51;11.10;91.60
48162;DHT22;33950;48.154;16.316;2024-01-25T12:31:16;11.10;91.00
48162;DHT22;33950;48.154;16.316;2024-01-25T12:33:43;11.00;91.50
48162;DHT22;33950;48.154;16.316;2024-01-25T12:36:10;11.20;91.10
48162;DHT22;33950;48.154;16.316;2024-01-25T12:38:35;11.20;90.80
48162;DHT22;33950;48.154;16.316;2024-01-25T12:41:01;11.30;90.80
48162;DHT22;33950;48.154;16.316;2024-01-25T12:43:28;11.30;90.70
48162;DHT22;33950;48.154;16.316;2024-01-25T12:45:54;11.40;90.60
48162;DHT22;33950;48.154;16.316;2024-01-25T12:48:19;11.20;90.40
48162;DHT22;33950;48.154;16.316;2024-01-25T12:50:45;11.00;90.50
48162;DHT22;33950;48.154;16.316;2024-01-25T12:53:12;10.90;90.70
48162;DHT22;33950;48.154;16.316;2024-01-25T12:55:38;11.00;90.80
48162;DHT22;33950;48.154;16.316;2024-01-25T12:58:04;11.30;90.70
48162;DHT22;33950;48.154;16.316;2024-01-25T13:00:29;11.40;90.50
48162;DHT22;33950;48.154;16.316;2024-01-25T13:02:55;11.50;90.40
48162;DHT22;33950;48.154;16.316;2024-01-25T13:05:22;11.40;90.40
48162;DHT22;33950;48.154;16.316;2024-01-25T13:07:47;10.80;90.80
48162;DHT22;33950;48.154;16.316;2024-01-25T13:10:14;10.80;91.10
48162;DHT22;33950;48.154;16.316;2024-01-25T13:12:40;10.90;91.10
48162;DHT22;33950;48.154;16.316;2024-01-25T13:15:06;10.90;91.10
48162;DHT22;33950;48.154;16.316;2024-01-25T13:17:33;10.80;91.00
48162;DHT22;33950;48.154;16.316;2024-01-25T13:19:59;10.70;91.00
48162;DHT22;33950;48.154;16.316;2024-01-25T13:22:25;10.70;91.10
48162;DHT22;33950;48.154;16.316;2024-01-25T13:24:50;10.70;91.00
48162;DHT22;33950;48.154;16.316;2024-01-25T13:27:18;10.60;90.70
48162;DHT22;33950;48.154;16.316;2024-01-25T13:29:43;10.60;90.70
48162;DHT22;33950;48.154;16.316;2024-01-25T13:32:09;10.40;90.70
48162;DHT22;33950;48.154;16.316;2024-01-25T13:34:35;10.50;90.60
48162;DHT22;33950;48.154;16.316;2024-01-25T13:37:00;10.50;90.40
48162;DHT22;33950;48.154;16.316;2024-01-25T13:39:26;10.60;90.50
48162;DHT22;33950;48.154;16.316;2024-01-25T13:41:51;10.40;90.40
48162;DHT22;33950;48.154;16.316;2024-01-25T13:44:19;10.00;90.70
48162;DHT22;33950;48.154;16.316;2024-01-25T13:46:44;9.90;90.90
48162;DHT22;33950;48.154;16.316;2024-01-25T13:49:10;9.80;91.00
48162;DHT22;33950;48.154;16.316;2024-01-25T13:51:35;9.80;90.70
48162;DHT22;33950;48.154;16.316;2024-01-25T13:54:01;9.80;90.70
48162;DHT22;33950;48.154;16.316;2024-01-25T13:56:27;9.80;90.60
48162;DHT22;33950;48.154;16.316;2024-01-25T13:58:52;9.80;90.60
48162;DHT22;33950;48.154;16.316;2024-01-25T14:01:19;9.70;90.70
48162;DHT22;33950;48.154;16.316;2024-01-25T14:03:45;9.60;90.80
48162;DHT22;33950;48.154;16.316;2024-01-25T14:06:10;9.60;90.90
48162;DHT22;33950;48.154;16.316;2024-01-25T14:08:36;9.50;90.90
48162;DHT22;33950;48.154;16.316;2024-01-25T14:11:02;9.50;90.90
48162;DHT22;33950;48.154;16.316;2024-01-25T14:13:28;9.50;91.10
48162;DHT22;33950;48.154;16.316;2024-01-25T14:15:54;9.50;91.00
48162;DHT22;33950;48.154;16.316;2024-01-25T14:18:21;9.40;91.00
48162;DHT22;33950;48.154;16.316;2024-01-25T14:20:46;9.40;91.10
48162;DHT22;33950;48.154;16.316;2024-01-25T14:23:12;9.40;91.20
48162;DHT22;33950;48.154;16.316;2024-01-25T14:25:37;9.40;91.20
48162;DHT22;33950;48.154;16.316;2024-01-25T14:28:03;9.40;91.30
48162;DHT22;33950;48.154;16.316;2024-01-25T14:30:28;9.40;91.30
48162;DHT22;33950;48.154;16.316;2024-01-25T14:32:54;9.40;91.50
48162;DHT22;33950;48.154;16.316;2024-01-25T14:35:22;9.30;91.50
48162;DHT22;33950;48.154;16.316;2024-01-25T14:37:53;9.30;91.40
48162;DHT22;33950;48.154;16.316;2024-01-25T14:40:19;9.30;91.40
48162;DHT22;33950;48.154;16.316;2024-01-25T14:42:44;9.30;91.40
48162;DHT22;33950;48.154;16.316;2024-01-25T14:45:10;9.30;91.30
48162;DHT22;33950;48.154;16.316;2024-01-25T14:47:35;9.30;91.10
48162;DHT22;33950;48.154;16.316;2024-01-25T14:50:01;9.30;91.00
48162;DHT22;33950;48.154;16.316;2024-01-25T14:52:28;9.30;90.90
48162;DHT22;33950;48.154;16.316;2024-01-25T14:54:54;9.30;90.60
48162;DHT22;33950;48.154;16.316;2024-01-25T14:57:19;9.20;90.80
48162;DHT22;33950;48.154;16.316;2024-01-25T14:59:45;9.30;90.80
48162;DHT22;33950;48.154;16.316;2024-01-25T15:02:11;9.30;90.80
48162;DHT22;33950;48.154;16.316;2024-01-25T15:04:37;9.30;90.90
48162;DHT22;33950;48.154;16.316;2024-01-25T15:07:03;9.30;90.80
48162;DHT22;33950;48.154;16.316;2024-01-25T15:09:30;9.20;90.80
48162;DHT22;33950;48.154;16.316;2024-01-25T15:11:56;9.20;90.80
48162;DHT22;33950;48.154;16.316;2024-01-25T15:14:22;9.20;90.80
48162;DHT22;33950;48.154;16.316;2024-01-25T15:16:48;9.20;90.90
48162;DHT22;33950;48.154;16.316;2024-01-25T15:19:14;9.20;91.00